Time;durP1;ratioP1;P1;durP2;ratioP2;P2;SDS_P1;SDS_P2;PMS_P1;PMS_P2;Temp;Humidity;BMP_temperature;BMP_pressure;BME280_temperature;BME280_humidity;BME280_pressure;Samples;Min_cycle;Max_cycle;Signal;HPM_P1;HPM_P2
2023/09/08 00:02:07;;;;;;;9.15;7.88;;;22.10;99.90;;;;;;6105230;23;20021;-89
2023/09/08 00:04:32;;;;;;;9.95;8.07;;;22.00;99.90;;;;;;6105158;23;20072;-89
2023/09/08 00:06:59;;;;;;;8.82;7.85;;;22.00;99.90;;;;;;6057158;23;20638;-89
2023/09/08 00:09:24;;;;;;;9.00;8.10;;;22.00;99.90;;;;;;6080080;23;20021;-89
2023/09/08 00:11:50;;;;;;;9.10;7.40;;;21.90;99.90;;;;;;6131161;23;20018;-89
2023/09/08 00:14:16;;;;;;;9.05;8.13;;;21.90;99.90;;;;;;6081141;23;20122;-89
2023/09/08 00:16:44;;;;;;;7.85;7.03;;;21.90;99.90;;;;;;6105197;23;20014;-89
2023/09/08 00:19:11;;;;;;;10.02;7.68;;;21.90;99.90;;;;;;6081055;23;20018;-89
2023/09/08 00:21:37;;;;;;;12.40;7.72;;;21.70;99.90;;;;;;6081227;23;20014;-90
2023/09/08 00:24:04;;;;;;;8.70;7.80;;;21.80;99.90;;;;;;6104966;23;20017;-89
2023/09/08 00:26:30;;;;;;;8.77;7.88;;;21.80;99.90;;;;;;6104567;23;20014;-89
2023/09/08 00:28:56;;;;;;;9.27;7.68;;;21.80;99.90;;;;;;6080795;23;20010;-90
2023/09/08 00:31:22;;;;;;;8.80;7.90;;;21.80;99.90;;;;;;6080641;23;20013;-89
2023/09/08 00:33:48;;;;;;;8.77;7.93;;;21.70;99.90;;;;;;6056816;23;20031;-90
2023/09/08 00:36:15;;;;;;;9.50;7.97;;;21.70;99.90;;;;;;6104442;23;20022;-90
2023/09/08 00:38:41;;;;;;;9.38;8.07;;;21.70;99.90;;;;;;6104982;23;20013;-89
2023/09/08 00:41:07;;;;;;;11.10;7.95;;;21.60;99.90;;;;;;6104132;23;20347;-89
2023/09/08 00:43:33;;;;;;;8.90;8.00;;;21.60;99.90;;;;;;6104288;23;20049;-91
2023/09/08 00:46:02;;;;;;;9.38;8.20;;;21.50;99.90;;;;;;6104865;23;20016;-89
2023/09/08 00:48:28;;;;;;;9.63;8.63;;;21.50;99.90;;;;;;6081370;23;20020;-89
2023/09/08 00:50:54;;;;;;;10.07;9.18;;;21.50;99.90;;;;;;6104337;23;20100;-89
2023/09/08 00:53:21;;;;;;;9.40;8.50;;;21.50;99.90;;;;;;6104261;23;20045;-89
2023/09/08 00:55:48;;;;;;;8.82;7.93;;;21.40;99.90;;;;;;6080467;23;20414;-90
2023/09/08 00:58:14;;;;;;;9.52;8.48;;;21.40;99.90;;;;;;6104091;23;20351;-88
2023/09/08 01:00:39;;;;;;;10.48;8.50;;;21.30;99.90;;;;;;6079410;23;20013;-89
2023/09/08 01:03:05;;;;;;;9.20;8.38;;;21.40;99.90;;;;;;6079836;23;20009;-88
2023/09/08 01:05:32;;;;;;;9.45;8.50;;;21.30;99.90;;;;;;6103738;23;20080;-89
2023/09/08 01:07:59;;;;;;;8.70;7.90;;;21.30;99.90;;;;;;6104592;23;20015;-88
2023/09/08 01:10:25;;;;;;;12.07;9.32;;;21.30;99.90;;;;;;6103585;23;20017;-89
2023/09/08 01:12:51;;;;;;;8.43;7.63;;;21.20;99.90;;;;;;6102773;23;20118;-89
2023/09/08 01:15:16;;;;;;;9.55;8.50;;;21.20;99.90;;;;;;6079316;23;20040;-88
2023/09/08 01:17:42;;;;;;;9.18;8.27;;;21.20;99.90;;;;;;6079718;23;20087;-90
2023/09/08 01:20:14;;;;;;;9.43;8.52;;;21.20;99.90;;;;;;6079870;23;20413;-89
2023/09/08 01:23:08;;;;;;;9.30;8.40;;;21.10;99.90;;;;;;6103945;23;20335;-88
2023/09/08 01:25:46;;;;;;;9.32;8.43;;;21.10;99.90;;;;;;6103753;23;20013;-89
2023/09/08 01:28:12;;;;;;;9.73;8.60;;;21.80;99.90;;;;;;6103625;23;20049;-89
2023/09/08 01:30:39;;;;;;;9.60;8.68;;;21.00;99.90;;;;;;6128571;23;20021;-89
2023/09/08 01:33:05;;;;;;;10.02;8.60;;;20.90;99.90;;;;;;6056390;23;20020;-89
2023/09/08 01:35:31;;;;;;;10.95;8.82;;;20.90;99.90;;;;;;6079560;23;20025;-89
2023/09/08 01:37:58;;;;;;;10.25;8.80;;;20.80;99.90;;;;;;6103157;23;20017;-89
2023/09/08 01:40:23;;;;;;;10.65;8.82;;;20.80;99.90;;;;;;6127699;23;20014;-89
2023/09/08 01:42:50;;;;;;;10.30;9.30;;;20.70;99.90;;;;;;6124960;23;20045;-89
2023/09/08 01:45:16;;;;;;;9.80;8.80;;;20.70;99.90;;;;;;6078929;23;20013;-90
2023/09/08 01:47:43;;;;;;;10.02;9.13;;;20.60;99.90;;;;;;6103328;23;20009;-89
2023/09/08 01:50:09;;;;;;;10.05;9.13;;;20.60;99.90;;;;;;6127595;23;20021;-89
2023/09/08 01:52:35;;;;;;;10.18;9.18;;;20.60;99.90;;;;;;6079734;23;20014;-90
2023/09/08 01:55:02;;;;;;;9.75;8.75;;;20.50;99.90;;;;;;6079721;23;20100;-90
2023/09/08 01:57:27;;;;;;;10.10;9.10;;;20.50;99.90;;;;;;6079171;23;20021;-89
2023/09/08 01:59:53;;;;;;;9.55;8.60;;;20.50;99.90;;;;;;6079307;23;20320;-90
2023/09/08 02:02:19;;;;;;;10.30;9.20;;;20.50;99.90;;;;;;6103954;23;20014;-89
2023/09/08 02:04:44;;;;;;;10.00;8.85;;;20.40;99.90;;;;;;6079983;23;20020;-90
2023/09/08 02:07:10;;;;;;;10.13;9.00;;;20.40;99.90;;;;;;6128303;23;20013;-89
2023/09/08 02:09:42;;;;;;;12.30;9.55;;;20.40;99.90;;;;;;6080653;23;20096;-89
2023/09/08 02:12:08;;;;;;;11.48;9.65;;;20.40;99.90;;;;;;6103404;23;20053;-90
2023/09/08 02:14:35;;;;;;;11.00;9.80;;;20.30;99.90;;;;;;6104145;23;20469;-89
2023/09/08 02:17:00;;;;;;;10.15;9.15;;;20.20;99.90;;;;;;6103747;23;20092;-89
2023/09/08 02:19:26;;;;;;;10.48;9.40;;;20.20;99.90;;;;;;6103227;23;20049;-89
2023/09/08 02:21:52;;;;;;;11.75;9.93;;;20.20;99.90;;;;;;6080809;23;20100;-88
2023/09/08 02:24:18;;;;;;;10.27;9.25;;;20.20;99.90;;;;;;6057198;23;20017;-89
2023/09/08 02:26:44;;;;;;;11.55;9.73;;;19.40;99.90;;;;;;6104567;23;20010;-89
2023/09/08 02:29:09;;;;;;;10.68;9.68;;;20.20;99.90;;;;;;6079116;23;20017;-89
2023/09/08 02:31:35;;;;;;;10.18;9.27;;;20.10;99.90;;;;;;6103150;23;20473;-90
2023/09/08 02:34:01;;;;;;;12.75;9.63;;;20.10;99.90;;;;;;6103622;23;20013;-90
2023/09/08 02:36:27;;;;;;;10.38;9.38;;;20.10;99.90;;;;;;6079383;23;20450;-89
2023/09/08 02:38:56;;;;;;;10.75;9.75;;;20.10;99.90;;;;;;6079425;23;20017;-89
2023/09/08 02:41:25;;;;;;;11.05;9.88;;;20.00;99.90;;;;;;6102053;23;20144;-89
2023/09/08 02:43:51;;;;;;;11.13;10.13;;;20.00;99.90;;;;;;6103371;23;20009;-90
2023/09/08 02:46:17;;;;;;;11.73;10.63;;;20.00;99.90;;;;;;6080141;23;20099;-89
2023/09/08 02:48:43;;;;;;;11.27;10.15;;;19.90;99.90;;;;;;6127058;23;20390;-89
2023/09/08 02:51:08;;;;;;;13.48;9.38;;;19.90;99.90;;;;;;6103034;23;20052;-89
2023/09/08 02:53:35;;;;;;;13.00;10.73;;;19.80;99.90;;;;;;6078735;23;20018;-89
2023/09/08 02:56:03;;;;;;;11.60;10.40;;;19.80;99.90;;;;;;6079709;23;20064;-89
2023/09/08 02:58:30;;;;;;;11.25;10.15;;;19.80;99.90;;;;;;6080328;23;20371;-89
2023/09/08 03:00:56;;;;;;;13.70;10.50;;;19.80;99.90;;;;;;6055789;23;20750;-89
2023/09/08 03:03:22;;;;;;;11.40;10.30;;;19.80;99.90;;;;;;6103343;23;20009;-90
2023/09/08 03:05:48;;;;;;;13.07;9.95;;;19.90;99.90;;;;;;6078851;23;20491;-89
2023/09/08 03:08:13;;;;;;;12.23;10.13;;;19.90;99.90;;;;;;6079477;23;20579;-89
2023/09/08 03:10:40;;;;;;;10.40;9.40;;;19.80;99.90;;;;;;6056034;23;20014;-89
2023/09/08 03:13:06;;;;;;;11.02;9.93;;;19.80;99.90;;;;;;6081249;23;20092;-89
2023/09/08 03:15:33;;;;;;;11.63;9.85;;;19.80;99.90;;;;;;6105232;23;20734;-89
2023/09/08 03:17:59;;;;;;;11.13;10.02;;;19.80;99.90;;;;;;6081240;23;20096;-89
2023/09/08 03:20:26;;;;;;;11.30;10.20;;;19.80;99.90;;;;;;6105081;23;20501;-89
2023/09/08 03:22:52;;;;;;;11.05;9.63;;;19.80;99.90;;;;;;6104988;23;20093;-89
2023/09/08 03:25:18;;;;;;;11.88;9.73;;;19.80;99.90;;;;;;6105107;23;20017;-89
2023/09/08 03:27:44;;;;;;;10.88;9.85;;;19.80;99.90;;;;;;6104264;23;20016;-90
2023/09/08 03:30:10;;;;;;;11.40;10.20;;;19.70;99.90;;;;;;6105071;23;20017;-89
2023/09/08 03:32:36;;;;;;;10.77;9.68;;;19.70;99.90;;;;;;6079794;23;20068;-89
2023/09/08 03:35:04;;;;;;;12.32;9.82;;;19.70;99.90;;;;;;6129122;23;20113;-88
2023/09/08 03:37:30;;;;;;;10.50;9.50;;;19.60;99.90;;;;;;6056679;23;20411;-90
2023/09/08 03:39:55;;;;;;;11.70;10.50;;;19.60;99.90;;;;;;6056630;23;20025;-89
2023/09/08 03:42:21;;;;;;;11.77;10.20;;;19.60;99.90;;;;;;6056625;23;20010;-89
2023/09/08 03:44:47;;;;;;;10.77;9.68;;;19.60;99.90;;;;;;6104246;23;20084;-88
2023/09/08 03:47:12;;;;;;;11.35;10.15;;;19.60;99.90;;;;;;6104937;23;20017;-89
2023/09/08 03:49:38;;;;;;;14.07;10.27;;;19.50;99.90;;;;;;6104356;23;20010;-90
2023/09/08 03:52:04;;;;;;;11.50;10.40;;;19.50;99.90;;;;;;6080648;23;20020;-89
2023/09/08 03:54:30;;;;;;;11.48;10.07;;;19.50;99.90;;;;;;6079827;23;20025;-88
2023/09/08 03:56:55;;;;;;;13.57;10.75;;;19.40;99.90;;;;;;6080534;23;20443;-89
2023/09/08 03:59:21;;;;;;;12.60;10.95;;;19.40;99.90;;;;;;6104739;23;20156;-89
2023/09/08 04:01:47;;;;;;;13.25;11.50;;;19.30;99.90;;;;;;6104151;23;20573;-89
2023/09/08 04:04:13;;;;;;;11.65;10.02;;;19.30;99.90;;;;;;6057004;23;20009;-89
2023/09/08 04:06:38;;;;;;;11.48;10.38;;;19.30;99.90;;;;;;6056552;23;20823;-88
2023/09/08 04:09:04;;;;;;;12.90;11.27;;;19.30;99.90;;;;;;6104175;23;20013;-89
2023/09/08 04:11:30;;;;;;;12.40;11.10;;;19.30;99.90;;;;;;6128778;23;20439;-89
2023/09/08 04:13:55;;;;;;;14.27;11.40;;;19.20;99.90;;;;;;6127970;23;20025;-89
2023/09/08 04:16:21;;;;;;;11.55;10.43;;;19.20;99.90;;;;;;6081182;23;20018;-89
2023/09/08 04:18:47;;;;;;;12.57;11.20;;;19.20;99.90;;;;;;6079301;23;20473;-89
2023/09/08 04:21:13;;;;;;;12.10;10.90;;;19.10;99.90;;;;;;6080078;23;20164;-89
2023/09/08 04:23:39;;;;;;;12.90;11.60;;;19.20;99.90;;;;;;6079701;23;20084;-89
2023/09/08 04:26:05;;;;;;;13.15;11.32;;;19.20;99.90;;;;;;6104669;23;20439;-88
2023/09/08 04:28:30;;;;;;;11.90;10.63;;;19.10;99.90;;;;;;6081351;23;20037;-89
2023/09/08 04:30:56;;;;;;;12.65;10.73;;;19.20;99.90;;;;;;6080237;23;20013;-89
2023/09/08 04:33:24;;;;;;;12.52;11.32;;;19.10;99.90;;;;;;6080199;23;20017;-89
2023/09/08 04:35:49;;;;;;;12.93;11.32;;;19.10;99.90;;;;;;6103190;23;20041;-90
2023/09/08 04:38:15;;;;;;;14.07;11.05;;;19.10;99.90;;;;;;6080420;23;20593;-88
2023/09/08 04:40:46;;;;;;;12.73;11.52;;;19.10;99.90;;;;;;6105355;23;20014;-89
2023/09/08 04:43:12;;;;;;;15.10;11.57;;;19.00;99.90;;;;;;6105009;23;20017;-89
2023/09/08 04:45:38;;;;;;;13.20;11.80;;;19.10;99.90;;;;;;6101678;23;20018;-89
2023/09/08 04:48:04;;;;;;;13.98;12.45;;;19.00;99.90;;;;;;6100606;23;20083;-89
2023/09/08 04:50:30;;;;;;;13.57;12.02;;;19.00;99.90;;;;;;6103910;23;20025;-88
2023/09/08 04:52:56;;;;;;;14.18;12.80;;;19.00;99.90;;;;;;6079965;23;20014;-88
2023/09/08 04:55:22;;;;;;;14.25;12.70;;;19.00;99.90;;;;;;6056290;23;20017;-89
2023/09/08 04:57:48;;;;;;;15.07;12.00;;;19.00;99.90;;;;;;6079170;23;20028;-88
2023/09/08 05:00:14;;;;;;;13.52;12.13;;;19.00;99.90;;;;;;6080380;23;20028;-89
2023/09/08 05:02:39;;;;;;;12.80;11.40;;;18.90;99.90;;;;;;6055717;23;20013;-89
2023/09/08 05:05:06;;;;;;;13.38;12.07;;;18.90;99.90;;;;;;6081267;23;20102;-89
2023/09/08 05:07:31;;;;;;;13.38;12.07;;;18.90;99.90;;;;;;6055855;23;20021;-88
2023/09/08 05:09:57;;;;;;;13.82;12.07;;;18.90;99.90;;;;;;6080139;23;20021;-89
2023/09/08 05:12:23;;;;;;;12.80;11.50;;;18.90;99.90;;;;;;6079780;23;20021;-89
2023/09/08 05:14:48;;;;;;;12.85;11.57;;;18.90;99.90;;;;;;6103682;23;20049;-89
2023/09/08 05:17:14;;;;;;;12.50;11.23;;;18.90;99.90;;;;;;6103943;23;20020;-88
2023/09/08 05:19:40;;;;;;;12.07;10.90;;;18.80;99.90;;;;;;6078653;23;20506;-89
2023/09/08 05:22:09;;;;;;;17.13;12.30;;;18.80;99.90;;;;;;6079579;23;20068;-89
2023/09/08 05:24:34;;;;;;;13.65;12.35;;;18.90;99.90;;;;;;6104323;23;20021;-90
2023/09/08 05:27:00;;;;;;;15.30;12.73;;;18.90;99.90;;;;;;6080719;23;20014;-89
2023/09/08 05:29:26;;;;;;;13.00;11.68;;;18.80;99.90;;;;;;6104621;23;20153;-88
2023/09/08 05:31:52;;;;;;;13.95;12.15;;;18.80;99.90;;;;;;6079430;23;20097;-88
2023/09/08 05:34:17;;;;;;;13.20;11.90;;;18.80;99.90;;;;;;6077263;23;20032;-89
2023/09/08 05:36:43;;;;;;;12.32;11.10;;;18.90;99.90;;;;;;6055447;23;20022;-90
2023/09/08 05:39:10;;;;;;;16.15;12.27;;;18.90;99.90;;;;;;6079110;23;20025;-88
2023/09/08 05:41:36;;;;;;;13.82;12.50;;;18.90;99.90;;;;;;6103762;23;20092;-89
2023/09/08 05:44:01;;;;;;;13.25;11.25;;;19.00;99.90;;;;;;6055797;23;20378;-88
2023/09/08 05:46:27;;;;;;;12.90;11.63;;;19.00;99.90;;;;;;6079492;23;20020;-89
2023/09/08 05:48:53;;;;;;;14.05;12.43;;;19.00;99.90;;;;;;6127250;23;20104;-88
2023/09/08 05:51:19;;;;;;;13.27;12.02;;;19.00;99.90;;;;;;6127887;23;20017;-89
2023/09/08 05:53:46;;;;;;;13.43;12.00;;;19.00;99.90;;;;;;6078547;23;20017;-89
2023/09/08 05:56:11;;;;;;;17.30;12.40;;;19.10;99.90;;;;;;6055895;23;20044;-89
2023/09/08 05:58:37;;;;;;;13.68;12.23;;;18.70;99.90;;;;;;6102103;23;20355;-89
2023/09/08 06:01:04;;;;;;;14.50;12.88;;;19.20;99.90;;;;;;6125051;23;20021;-89
2023/09/08 06:03:30;;;;;;;13.45;12.15;;;19.20;99.90;;;;;;6079096;23;20017;-89
2023/09/08 06:05:57;;;;;;;13.10;11.70;;;19.30;99.90;;;;;;6079509;23;20320;-89
2023/09/08 06:08:23;;;;;;;13.73;12.32;;;19.30;99.90;;;;;;6080156;23;20020;-88
2023/09/08 06:10:48;;;;;;;13.95;12.55;;;19.40;99.90;;;;;;6103209;23;20009;-89
2023/09/08 06:13:14;;;;;;;14.25;12.32;;;19.40;99.90;;;;;;6079934;23;20017;-88
2023/09/08 06:15:40;;;;;;;14.55;12.70;;;19.50;99.90;;;;;;6127967;23;20092;-89
2023/09/08 06:18:08;;;;;;;13.57;12.15;;;19.60;99.90;;;;;;6079728;23;20525;-89
2023/09/08 06:20:34;;;;;;;14.32;12.82;;;19.70;99.90;;;;;;6103535;23;20025;-89
2023/09/08 06:23:00;;;;;;;13.60;12.20;;;19.70;99.90;;;;;;6055711;23;20009;-89
2023/09/08 06:25:28;;;;;;;14.27;12.80;;;19.80;99.90;;;;;;6079513;23;20512;-89
2023/09/08 06:27:54;;;;;;;14.55;12.85;;;19.90;99.90;;;;;;6131315;23;20096;-88
2023/09/08 06:30:19;;;;;;;15.70;11.85;;;19.90;99.90;;;;;;6108020;23;20021;-89
2023/09/08 06:32:45;;;;;;;14.13;12.70;;;20.00;99.90;;;;;;6107412;23;20032;-89
2023/09/08 06:35:11;;;;;;;13.93;12.48;;;20.10;99.90;;;;;;6077991;23;20049;-89
2023/09/08 06:37:40;;;;;;;14.15;12.40;;;20.10;99.90;;;;;;6074203;23;20025;-89
2023/09/08 06:40:06;;;;;;;13.68;12.27;;;20.30;99.90;;;;;;6099884;23;20033;-89
2023/09/08 06:42:32;;;;;;;12.23;11.10;;;20.30;99.90;;;;;;6100852;23;20343;-89
2023/09/08 06:44:59;;;;;;;13.95;11.63;;;20.40;99.90;;;;;;6101538;23;20013;-88
2023/09/08 06:47:25;;;;;;;13.27;11.88;;;20.60;99.90;;;;;;6102807;23;20017;-89
2023/09/08 06:49:51;;;;;;;17.15;12.68;;;20.70;99.90;;;;;;6102038;23;20020;-89
2023/09/08 06:52:17;;;;;;;13.45;12.05;;;20.70;99.90;;;;;;6101215;23;20021;-89
2023/09/08 06:54:45;;;;;;;14.82;12.18;;;20.80;99.90;;;;;;6127281;23;20052;-89
2023/09/08 06:57:12;;;;;;;14.40;12.88;;;20.90;99.90;;;;;;6101193;23;20014;-87
2023/09/08 06:59:38;;;;;;;15.82;11.65;;;21.00;99.90;;;;;;6099612;23;20087;-88
2023/09/08 07:02:04;;;;;;;12.88;10.85;;;21.00;99.90;;;;;;6099219;23;20096;-87
2023/09/08 07:04:31;;;;;;;12.10;10.82;;;21.10;99.90;;;;;;6103431;23;20014;-89
2023/09/08 07:06:57;;;;;;;12.43;11.13;;;21.30;99.90;;;;;;6080863;23;20009;-89
2023/09/08 07:09:22;;;;;;;12.57;11.35;;;21.40;99.90;;;;;;6057776;23;20113;-89
2023/09/08 07:11:48;;;;;;;11.82;10.63;;;21.50;99.90;;;;;;6080655;23;20096;-88
2023/09/08 07:14:14;;;;;;;11.65;10.45;;;21.70;99.90;;;;;;6105315;23;20014;-89
2023/09/08 07:16:40;;;;;;;12.15;10.75;;;21.80;99.90;;;;;;6057115;23;20445;-89
2023/09/08 07:19:05;;;;;;;13.10;10.55;;;21.90;99.90;;;;;;6080662;23;20017;-88
2023/09/08 07:21:31;;;;;;;11.20;9.88;;;22.10;99.90;;;;;;6080786;23;20018;-89
2023/09/08 07:23:58;;;;;;;10.63;9.63;;;22.20;99.90;;;;;;6057025;23;20025;-89
2023/09/08 07:26:24;;;;;;;11.18;9.43;;;22.40;99.90;;;;;;6081199;23;20116;-89
2023/09/08 07:28:50;;;;;;;10.55;9.38;;;22.50;99.90;;;;;;6082071;23;20343;-89
2023/09/08 07:31:16;;;;;;;10.00;8.40;;;22.70;99.90;;;;;;6057011;23;20021;-88
2023/09/08 07:33:42;;;;;;;9.75;8.35;;;22.90;99.90;;;;;;6105105;23;20084;-89
2023/09/08 07:36:09;;;;;;;9.48;8.45;;;22.70;99.90;;;;;;6082766;23;20446;-89
2023/09/08 07:38:35;;;;;;;9.27;8.38;;;23.20;99.90;;;;;;6081424;23;20021;-90
2023/09/08 07:41:02;;;;;;;11.57;9.50;;;23.20;99.90;;;;;;6056976;23;20017;-89
2023/09/08 07:43:28;;;;;;;11.05;8.35;;;23.30;99.90;;;;;;6129289;23;20013;-90
2023/09/08 07:45:54;;;;;;;9.63;8.73;;;23.40;99.90;;;;;;6100890;23;20024;-89
2023/09/08 07:48:20;;;;;;;9.25;8.05;;;23.50;99.90;;;;;;6078774;23;20028;-89
2023/09/08 07:50:46;;;;;;;8.98;7.97;;;23.50;99.90;;;;;;6105134;23;20469;-90
2023/09/08 07:53:11;;;;;;;11.73;8.82;;;23.60;99.90;;;;;;6105099;23;20028;-90
2023/09/08 07:55:37;;;;;;;10.93;8.73;;;23.70;99.90;;;;;;6080734;23;20017;-89
2023/09/08 07:58:07;;;;;;;9.48;8.45;;;23.70;99.90;;;;;;6106060;23;20096;-89
2023/09/08 08:00:33;;;;;;;9.10;8.20;;;23.80;99.90;;;;;;6083536;23;20014;-89
2023/09/08 08:02:59;;;;;;;9.05;8.15;;;23.90;99.90;;;;;;6082992;23;20010;-89
2023/09/08 08:05:26;;;;;;;8.90;7.97;;;24.00;99.90;;;;;;6131193;23;20021;-89
2023/09/08 08:07:52;;;;;;;9.57;7.85;;;24.00;99.90;;;;;;6106615;23;20024;-89
2023/09/08 08:10:19;;;;;;;9.65;7.22;;;24.10;99.90;;;;;;6105263;23;20013;-90
2023/09/08 08:12:48;;;;;;;9.02;7.85;;;24.20;99.90;;;;;;6129047;23;20009;-90
2023/09/08 08:15:14;;;;;;;10.00;7.90;;;24.20;99.90;;;;;;6080288;23;20075;-89
2023/09/08 08:17:40;;;;;;;10.35;7.68;;;24.20;99.90;;;;;;6080254;23;20018;-89
2023/09/08 08:20:09;;;;;;;11.73;7.97;;;24.20;99.90;;;;;;6104042;23;20009;-89
2023/09/08 08:22:38;;;;;;;10.52;8.43;;;24.30;99.90;;;;;;6059088;23;20068;-90
2023/09/08 08:25:05;;;;;;;8.70;7.75;;;24.40;99.90;;;;;;6105226;23;20033;-89
2023/09/08 08:27:31;;;;;;;9.90;7.90;;;24.30;99.90;;;;;;6106303;23;20045;-90
2023/09/08 08:30:00;;;;;;;8.43;7.63;;;24.30;99.90;;;;;;6104182;23;20072;-89
2023/09/08 08:32:29;;;;;;;8.55;7.75;;;24.50;99.90;;;;;;6081442;23;20013;-89
2023/09/08 08:34:56;;;;;;;8.02;7.25;;;24.50;99.90;;;;;;6081140;23;20072;-88
2023/09/08 08:37:22;;;;;;;7.97;7.28;;;24.60;99.90;;;;;;6106924;23;20014;-89
2023/09/08 08:39:49;;;;;;;9.93;8.23;;;24.80;99.90;;;;;;6106077;23;20021;-89
2023/09/08 08:42:15;;;;;;;9.02;8.00;;;24.90;99.90;;;;;;6082099;23;20019;-88
2023/09/08 08:44:42;;;;;;;10.98;7.35;;;25.00;99.90;;;;;;6082017;23;20021;-90
2023/09/08 08:47:10;;;;;;;8.45;7.53;;;25.20;99.90;;;;;;6080600;23;20017;-89
2023/09/08 08:49:38;;;;;;;10.38;7.00;;;25.30;99.90;;;;;;6081901;23;20013;-89
2023/09/08 08:52:08;;;;;;;9.90;7.75;;;25.40;99.90;;;;;;6104316;23;20018;-89
2023/09/08 08:54:40;;;;;;;10.88;6.75;;;25.60;99.90;;;;;;6105474;23;20018;-89
2023/09/08 08:57:11;;;;;;;8.38;6.28;;;25.70;99.90;;;;;;6103774;23;20025;-90
2023/09/08 08:59:36;;;;;;;6.82;6.10;;;25.80;99.90;;;;;;6129502;23;20024;-89
2023/09/08 09:02:05;;;;;;;9.50;7.43;;;26.00;99.90;;;;;;6080963;23;20098;-92
2023/09/08 09:04:31;;;;;;;7.00;6.30;;;26.00;99.90;;;;;;6104439;23;20020;-90
2023/09/08 09:06:57;;;;;;;7.32;5.97;;;26.20;99.90;;;;;;6079777;23;20096;-90
2023/09/08 09:09:24;;;;;;;9.75;6.75;;;26.40;99.90;;;;;;6106479;23;20010;-90
2023/09/08 09:11:50;;;;;;;9.77;6.38;;;26.40;99.90;;;;;;6082041;23;20055;-90
2023/09/08 09:14:17;;;;;;;6.07;4.97;;;26.50;99.90;;;;;;6080438;23;20343;-89
2023/09/08 09:16:44;;;;;;;6.15;5.50;;;26.60;99.90;;;;;;6083233;23;20025;-91
2023/09/08 09:19:27;;;;;;;6.45;5.75;;;26.70;99.90;;;;;;6106891;23;20013;-90
2023/09/08 09:21:54;;;;;;;7.20;6.15;;;26.60;99.90;;;;;;6084542;23;20021;-90
2023/09/08 09:24:36;;;;;;;6.88;6.28;;;26.80;99.90;;;;;;6106250;23;20048;-89
2023/09/08 09:27:05;;;;;;;8.18;5.82;;;27.00;99.90;;;;;;6082849;23;20013;-90
2023/09/08 09:29:31;;;;;;;6.53;5.82;;;27.20;99.90;;;;;;6105947;23;20013;-92
2023/09/08 09:32:02;;;;;;;7.93;5.95;;;27.30;99.90;;;;;;6105131;23;20106;-90
2023/09/08 09:34:28;;;;;;;7.35;5.53;;;27.30;99.90;;;;;;6105658;23;20021;-91
2023/09/08 09:36:59;;;;;;;6.43;5.65;;;27.50;99.90;;;;;;6081783;23;20025;-90
2023/09/08 09:39:26;;;;;;;7.80;5.55;;;27.60;99.90;;;;;;6105710;23;20021;-90
2023/09/08 09:41:56;;;;;;;6.22;5.45;;;27.70;99.90;;;;;;6106468;23;20017;-91
2023/09/08 09:44:23;;;;;;;6.65;6.00;;;28.00;99.90;;;;;;6095080;23;20069;-90
2023/09/08 09:46:52;;;;;;;6.00;5.40;;;28.10;99.90;;;;;;6108842;23;20020;-91
2023/09/08 09:49:18;;;;;;;5.97;5.40;;;28.60;99.90;;;;;;6105183;23;20397;-89
2023/09/08 09:51:47;;;;;;;6.35;5.35;;;28.80;99.90;;;;;;6082221;23;20375;-91
2023/09/08 09:54:13;;;;;;;6.32;5.47;;;29.10;99.90;;;;;;6106283;23;20013;-91
2023/09/08 09:56:43;;;;;;;6.20;5.07;;;29.20;99.90;;;;;;6105737;23;20458;-89
2023/09/08 09:59:12;;;;;;;7.43;4.50;;;29.50;99.90;;;;;;6106158;23;20032;-90
2023/09/08 10:01:39;;;;;;;5.05;4.50;;;29.70;99.90;;;;;;6104952;23;20024;-90
2023/09/08 10:04:06;;;;;;;7.28;5.30;;;29.60;99.90;;;;;;6080804;23;20014;-90
2023/09/08 10:06:35;;;;;;;14.68;5.57;;;29.70;99.90;;;;;;6130010;23;20044;-91
2023/09/08 10:09:04;;;;;;;6.03;5.28;;;29.90;99.90;;;;;;6105321;23;20044;-89
2023/09/08 10:11:38;;;;;;;5.72;5.22;;;30.00;99.90;;;;;;6129974;23;20013;-88
2023/09/08 10:14:07;;;;;;;5.80;5.30;;;30.00;99.90;;;;;;6111819;23;20021;-88
2023/09/08 10:16:37;;;;;;;5.68;5.18;;;30.40;99.90;;;;;;6106364;23;20097;-92
2023/09/08 10:19:07;;;;;;;5.90;5.30;;;30.40;99.90;;;;;;6105723;23;20465;-91
2023/09/08 10:21:36;;;;;;;5.90;5.18;;;30.10;99.90;;;;;;6107124;23;20013;-92
2023/09/08 10:24:18;;;;;;;5.55;5.00;;;30.00;99.90;;;;;;6104875;23;20394;-89
2023/09/08 10:26:51;;;;;;;5.90;5.30;;;30.20;99.90;;;;;;6105082;23;20362;-89
2023/09/08 10:29:18;;;;;;;5.80;5.30;;;30.60;99.90;;;;;;6104664;23;20131;-89
2023/09/08 10:31:45;;;;;;;5.35;4.85;;;30.60;99.90;;;;;;6105025;23;20457;-88
2023/09/08 10:34:11;;;;;;;6.22;5.10;;;30.40;99.90;;;;;;6104813;23;20017;-91
2023/09/08 10:36:38;;;;;;;8.68;5.47;;;30.50;99.90;;;;;;6128713;23;20029;-89
2023/09/08 10:39:37;;;;;;;7.85;4.90;;;30.40;99.90;;;;;;6104377;23;20339;-88
2023/09/08 10:42:25;;;;;;;5.95;4.85;;;30.40;99.90;;;;;;6104513;23;20534;-89
2023/09/08 10:45:04;;;;;;;5.75;5.07;;;30.30;99.90;;;;;;6104316;23;20089;-89
2023/09/08 10:47:45;;;;;;;5.05;4.55;;;30.60;99.90;;;;;;6103101;23;20025;-89
2023/09/08 10:50:18;;;;;;;5.45;4.65;;;30.60;99.90;;;;;;6100502;23;20100;-89
2023/09/08 10:52:45;;;;;;;8.63;5.28;;;30.90;99.90;;;;;;6104152;23;20013;-89
2023/09/08 10:55:14;;;;;;;4.47;4.07;;;31.00;99.90;;;;;;6128465;23;20096;-88
2023/09/08 10:57:45;;;;;;;5.72;4.88;;;30.90;59.70;;;;;;6082494;23;20097;-89
2023/09/08 11:00:17;;;;;;;6.05;5.05;;;31.00;62.80;;;;;;6104895;23;20013;-89
2023/09/08 11:02:49;;;;;;;4.90;4.50;;;31.10;46.40;;;;;;6107110;23;20018;-88
2023/09/08 11:05:16;;;;;;;5.43;4.38;;;31.30;26.40;;;;;;6082640;23;20041;-88
2023/09/08 11:07:43;;;;;;;5.57;4.88;;;31.40;31.10;;;;;;6105727;23;20013;-89
2023/09/08 11:10:10;;;;;;;5.15;4.70;;;31.20;23.50;;;;;;6104428;23;20016;-88
2023/09/08 11:12:36;;;;;;;4.90;4.50;;;31.10;32.70;;;;;;6104916;23;20064;-91
2023/09/08 11:15:05;;;;;;;5.50;5.00;;;31.10;52.10;;;;;;6103677;23;20010;-90
2023/09/08 11:17:32;;;;;;;5.90;4.90;;;31.10;29.60;;;;;;6103172;23;20840;-89
2023/09/08 11:19:58;;;;;;;5.15;4.65;;;31.40;2.50;;;;;;6104272;23;20013;-89
2023/09/08 11:22:25;;;;;;;5.30;4.72;;;31.60;1.00;;;;;;6080365;23;20443;-91
2023/09/08 11:24:57;;;;;;;6.03;4.80;;;31.50;1.00;;;;;;6104576;23;20020;-90
2023/09/08 11:27:23;;;;;;;8.80;5.00;;;31.40;1.00;;;;;;6080230;23;20043;-89
2023/09/08 11:29:52;;;;;;;7.32;4.68;;;31.40;1.00;;;;;;6104387;23;20045;-88
2023/09/08 11:32:18;;;;;;;4.93;4.40;;;31.80;1.00;;;;;;6057333;23;20013;-89
2023/09/08 11:34:44;;;;;;;5.22;4.70;;;31.80;1.00;;;;;;6080884;23;20210;-87
2023/09/08 11:37:15;;;;;;;5.03;4.57;;;31.80;1.00;;;;;;6082200;23;20021;-89
2023/09/08 11:39:42;;;;;;;7.40;4.47;;;31.90;1.00;;;;;;6082947;23;20022;-89
2023/09/08 11:42:11;;;;;;;4.75;4.35;;;31.70;1.00;;;;;;6082267;23;20018;-89
2023/09/08 11:44:37;;;;;;;6.10;4.85;;;31.70;1.00;;;;;;6105495;23;20009;-87
2023/09/08 11:47:04;;;;;;;5.65;4.40;;;31.80;1.00;;;;;;6105613;23;20446;-86
2023/09/08 11:49:34;;;;;;;6.35;4.32;;;31.90;1.00;;;;;;6129101;23;20056;-89
2023/09/08 11:52:00;;;;;;;5.03;4.55;;;31.90;1.00;;;;;;6104693;23;20014;-89
2023/09/08 11:54:26;;;;;;;4.75;4.35;;;31.90;1.00;;;;;;6105543;23;20545;-89
2023/09/08 11:56:52;;;;;;;5.93;4.60;;;31.70;1.00;;;;;;6106208;23;20035;-87
2023/09/08 11:59:19;;;;;;;4.78;4.28;;;31.50;1.00;;;;;;6081451;23;20024;-88
2023/09/08 12:01:48;;;;;;;4.63;4.22;;;31.40;1.00;;;;;;6105938;23;20316;-88
2023/09/08 12:04:21;;;;;;;4.80;4.38;;;31.50;1.00;;;;;;6083434;23;20010;-89
2023/09/08 12:06:49;;;;;;;5.82;4.55;;;31.50;1.00;;;;;;6105858;23;20447;-89
2023/09/08 12:09:15;;;;;;;5.20;4.70;;;31.50;1.00;;;;;;6105134;23;20085;-88
2023/09/08 12:11:42;;;;;;;5.00;4.47;;;31.40;1.00;;;;;;6104980;23;20056;-89
2023/09/08 12:14:10;;;;;;;4.93;4.45;;;31.40;1.00;;;;;;6081889;23;20019;-88
2023/09/08 12:16:36;;;;;;;4.50;4.10;;;31.40;1.00;;;;;;6104794;23;20481;-89
2023/09/08 12:19:01;;;;;;;5.40;4.22;;;31.40;1.00;;;;;;6080722;23;20017;-91
2023/09/08 12:21:27;;;;;;;6.50;4.13;;;31.20;1.00;;;;;;6081363;23;20081;-90
2023/09/08 12:23:54;;;;;;;6.18;4.30;;;31.30;1.00;;;;;;6129889;23;20009;-88
2023/09/08 12:26:21;;;;;;;4.95;4.53;;;31.20;1.00;;;;;;6081485;23;20009;-91
2023/09/08 12:28:47;;;;;;;4.78;4.32;;;31.30;99.90;;;;;;6081507;23;20013;-88
2023/09/08 12:31:14;;;;;;;4.90;4.38;;;31.50;99.90;;;;;;6081856;23;20024;-89
2023/09/08 12:33:41;;;;;;;8.68;4.90;;;31.40;1.00;;;;;;6057521;23;20022;-90
2023/09/08 12:36:18;;;;;;;5.60;4.38;;;31.30;1.00;;;;;;6105775;23;20022;-88
2023/09/08 12:38:48;;;;;;;4.78;4.38;;;31.60;99.90;;;;;;6105027;23;20052;-91